Pagrindinis puslapis
METAR-TAF:

METAR-TAF

Oro uostai :

Ilam, Iranas

platuma: 33-35-09N, ilguma: 046-24-20E, Aukštis: 1334 m

Dabartinis oras

Ataskaita buvo paskelbta 55 minutes, ne 17:00 UTC
Vėjas 2 kt iš Šiaurės/Šiaurės Rytų
Temperatūra 17°C
Drėgmė 22%
Slėgis 1023 hPa
Matomumas 10 km arba daugiau
nėra debesų žemiau 1500 m ir nėra kamuolinių lietaus debesų

METAR: OICI 221700Z 03002KT CAVOK 17/M05 Q1023 A3022

Laikas: 21:25 (17:55 UTC)

Prognozė

Ataskaita buvo paskelbta 6 valandos ir 5 minutes, ne 11:50 UTC
Prognozė galioja nuo 22 metu 12 UTC su 23 metu 18 UTC
Vėjas 6 kt iš Vakarų
Matomumas 10 km arba daugiau
nėra debesų žemiau 1500 m ir nėra kamuolinių lietaus debesų
Laikinai
nuo 23 metu 03 UTC su 23 metu 08 UTC
Vėjas 10 kt iš Rytų/Šiaurės Rytų

TAF: OICI 221150Z 2212/2318 28006KT CAVOK TEMPO 2303/2308 07010KT

Orai ataskaitas ir orų prognozės (METAR, TAF).

turimą stotys yra geltonos ir raudonos taškus žemėlapyje.

Perkelti pele per norėdami pamatyti stoties vardą.

Tada spustelėkite, norėdami matyti oro stebėjimo ir prognozės.

Norėdami pakeisti žemėlapį: spustelėkite ant žalios mygtukų su juodo kryžiaus žemyn,; žalią mygtuką su brūkšneliu, jei norite nutolinti; arba žalių rodyklių gretimoms žemėlapius.


METAR-TAF: